sensor_id;sensor_type;location;lat;lon;timestamp;temperature;humidity
24326;DHT22;12448;45.532;5.290;2022-08-01T00:00:26;25.70;49.70
24326;DHT22;12448;45.532;5.290;2022-08-01T00:02:52;25.70;49.70
24326;DHT22;12448;45.532;5.290;2022-08-01T00:05:18;25.70;49.60
24326;DHT22;12448;45.532;5.290;2022-08-01T00:07:43;25.70;49.60
24326;DHT22;12448;45.532;5.290;2022-08-01T00:10:11;25.70;49.70
24326;DHT22;12448;45.532;5.290;2022-08-01T00:12:38;25.70;49.80
24326;DHT22;12448;45.532;5.290;2022-08-01T00:15:05;25.70;49.80
24326;DHT22;12448;45.532;5.290;2022-08-01T00:17:31;25.70;49.80
24326;DHT22;12448;45.532;5.290;2022-08-01T00:19:57;25.70;49.80
24326;DHT22;12448;45.532;5.290;2022-08-01T00:22:23;25.70;49.70
24326;DHT22;12448;45.532;5.290;2022-08-01T00:24:49;25.70;49.80
24326;DHT22;12448;45.532;5.290;2022-08-01T00:27:14;25.70;49.80
24326;DHT22;12448;45.532;5.290;2022-08-01T00:29:40;25.70;49.90
24326;DHT22;12448;45.532;5.290;2022-08-01T00:32:06;25.70;49.90
24326;DHT22;12448;45.532;5.290;2022-08-01T00:34:32;25.70;49.90
24326;DHT22;12448;45.532;5.290;2022-08-01T00:36:58;25.60;49.90
24326;DHT22;12448;45.532;5.290;2022-08-01T00:39:23;25.60;50.10
24326;DHT22;12448;45.532;5.290;2022-08-01T00:41:49;25.40;50.20
24326;DHT22;12448;45.532;5.290;2022-08-01T00:44:14;25.40;50.20
24326;DHT22;12448;45.532;5.290;2022-08-01T00:46:40;25.50;50.40
24326;DHT22;12448;45.532;5.290;2022-08-01T00:49:06;25.40;50.50
24326;DHT22;12448;45.532;5.290;2022-08-01T00:51:32;25.20;50.70
24326;DHT22;12448;45.532;5.290;2022-08-01T00:53:59;25.10;51.00
24326;DHT22;12448;45.532;5.290;2022-08-01T00:56:26;25.10;51.30
24326;DHT22;12448;45.532;5.290;2022-08-01T00:58:53;25.00;51.40
24326;DHT22;12448;45.532;5.290;2022-08-01T01:01:20;24.80;51.60
24326;DHT22;12448;45.532;5.290;2022-08-01T01:03:50;24.80;51.80
24326;DHT22;12448;45.532;5.290;2022-08-01T01:06:38;24.80;51.90
24326;DHT22;12448;45.532;5.290;2022-08-01T01:12:27;24.70;51.90
24326;DHT22;12448;45.532;5.290;2022-08-01T01:15:15;24.70;52.10
24326;DHT22;12448;45.532;5.290;2022-08-01T01:17:58;24.70;52.20
24326;DHT22;12448;45.532;5.290;2022-08-01T01:20:32;24.70;52.20
24326;DHT22;12448;45.532;5.290;2022-08-01T01:31:21;24.70;52.30
24326;DHT22;12448;45.532;5.290;2022-08-01T01:33:49;24.60;52.40
24326;DHT22;12448;45.532;5.290;2022-08-01T01:36:17;24.60;52.40
24326;DHT22;12448;45.532;5.290;2022-08-01T01:38:45;24.60;52.40
24326;DHT22;12448;45.532;5.290;2022-08-01T01:41:13;24.50;52.50
24326;DHT22;12448;45.532;5.290;2022-08-01T01:43:40;24.50;52.40
24326;DHT22;12448;45.532;5.290;2022-08-01T01:46:08;24.50;52.50
24326;DHT22;12448;45.532;5.290;2022-08-01T01:48:35;24.40;52.70
24326;DHT22;12448;45.532;5.290;2022-08-01T01:51:02;24.40;52.70
24326;DHT22;12448;45.532;5.290;2022-08-01T01:53:29;24.40;52.90
24326;DHT22;12448;45.532;5.290;2022-08-01T01:55:58;24.30;52.90
24326;DHT22;12448;45.532;5.290;2022-08-01T01:58:26;24.30;53.00
24326;DHT22;12448;45.532;5.290;2022-08-01T02:00:55;24.30;52.90
24326;DHT22;12448;45.532;5.290;2022-08-01T02:03:22;24.30;53.20
24326;DHT22;12448;45.532;5.290;2022-08-01T02:05:51;24.30;53.40
24326;DHT22;12448;45.532;5.290;2022-08-01T02:08:17;24.20;53.40
24326;DHT22;12448;45.532;5.290;2022-08-01T02:10:44;24.10;53.40
24326;DHT22;12448;45.532;5.290;2022-08-01T02:13:31;24.10;53.80
24326;DHT22;12448;45.532;5.290;2022-08-01T02:16:01;24.00;53.90
24326;DHT22;12448;45.532;5.290;2022-08-01T02:18:28;24.00;54.00
24326;DHT22;12448;45.532;5.290;2022-08-01T02:20:54;24.00;54.00
24326;DHT22;12448;45.532;5.290;2022-08-01T02:23:23;24.00;54.00
24326;DHT22;12448;45.532;5.290;2022-08-01T02:25:52;23.90;53.90
24326;DHT22;12448;45.532;5.290;2022-08-01T02:28:30;24.00;53.80
24326;DHT22;12448;45.532;5.290;2022-08-01T02:31:03;24.10;53.70
24326;DHT22;12448;45.532;5.290;2022-08-01T02:33:42;24.10;53.70
24326;DHT22;12448;45.532;5.290;2022-08-01T02:36:08;24.10;53.60
24326;DHT22;12448;45.532;5.290;2022-08-01T02:38:39;24.10;53.70
24326;DHT22;12448;45.532;5.290;2022-08-01T02:41:10;24.10;53.80
24326;DHT22;12448;45.532;5.290;2022-08-01T02:43:42;24.00;53.80
24326;DHT22;12448;45.532;5.290;2022-08-01T02:46:11;24.00;53.80
24326;DHT22;12448;45.532;5.290;2022-08-01T02:48:41;23.90;54.10
24326;DHT22;12448;45.532;5.290;2022-08-01T02:51:08;23.90;54.10
24326;DHT22;12448;45.532;5.290;2022-08-01T02:53:36;23.90;54.10
24326;DHT22;12448;45.532;5.290;2022-08-01T02:56:05;23.90;54.80
24326;DHT22;12448;45.532;5.290;2022-08-01T02:58:33;24.00;55.10
24326;DHT22;12448;45.532;5.290;2022-08-01T03:01:01;24.10;54.50
24326;DHT22;12448;45.532;5.290;2022-08-01T03:03:27;24.10;54.30
24326;DHT22;12448;45.532;5.290;2022-08-01T03:05:53;24.10;54.60
24326;DHT22;12448;45.532;5.290;2022-08-01T03:08:20;24.20;54.40
24326;DHT22;12448;45.532;5.290;2022-08-01T03:10:46;24.10;54.00
24326;DHT22;12448;45.532;5.290;2022-08-01T03:13:14;24.10;53.90
24326;DHT22;12448;45.532;5.290;2022-08-01T03:15:42;24.00;54.00
24326;DHT22;12448;45.532;5.290;2022-08-01T03:18:10;23.90;54.20
24326;DHT22;12448;45.532;5.290;2022-08-01T03:20:37;23.90;54.30
24326;DHT22;12448;45.532;5.290;2022-08-01T03:23:06;23.90;54.60
24326;DHT22;12448;45.532;5.290;2022-08-01T03:25:35;23.90;55.10
24326;DHT22;12448;45.532;5.290;2022-08-01T03:28:04;23.90;55.20
24326;DHT22;12448;45.532;5.290;2022-08-01T03:30:31;23.80;55.20
24326;DHT22;12448;45.532;5.290;2022-08-01T03:32:58;23.90;55.30
24326;DHT22;12448;45.532;5.290;2022-08-01T03:35:27;23.90;55.20
24326;DHT22;12448;45.532;5.290;2022-08-01T03:37:55;23.80;55.20
24326;DHT22;12448;45.532;5.290;2022-08-01T03:40:31;23.80;55.20
24326;DHT22;12448;45.532;5.290;2022-08-01T03:43:04;23.80;55.00
24326;DHT22;12448;45.532;5.290;2022-08-01T03:45:35;23.70;55.00
24326;DHT22;12448;45.532;5.290;2022-08-01T03:48:09;23.70;55.00
24326;DHT22;12448;45.532;5.290;2022-08-01T03:50:36;23.70;55.20
24326;DHT22;12448;45.532;5.290;2022-08-01T03:53:04;23.70;55.10
24326;DHT22;12448;45.532;5.290;2022-08-01T03:55:31;23.60;55.10
24326;DHT22;12448;45.532;5.290;2022-08-01T03:57:59;23.50;55.20
24326;DHT22;12448;45.532;5.290;2022-08-01T04:00:26;23.50;55.30
24326;DHT22;12448;45.532;5.290;2022-08-01T04:02:53;23.70;55.50
24326;DHT22;12448;45.532;5.290;2022-08-01T04:05:19;23.50;55.40
24326;DHT22;12448;45.532;5.290;2022-08-01T04:07:56;23.60;55.80
24326;DHT22;12448;45.532;5.290;2022-08-01T04:10:23;23.60;55.80
24326;DHT22;12448;45.532;5.290;2022-08-01T04:12:49;23.60;55.90
24326;DHT22;12448;45.532;5.290;2022-08-01T04:15:15;23.60;55.60
24326;DHT22;12448;45.532;5.290;2022-08-01T04:18:07;23.60;55.90
24326;DHT22;12448;45.532;5.290;2022-08-01T04:20:33;23.50;55.90
24326;DHT22;12448;45.532;5.290;2022-08-01T04:22:58;23.50;56.00
24326;DHT22;12448;45.532;5.290;2022-08-01T04:25:35;23.50;55.90
24326;DHT22;12448;45.532;5.290;2022-08-01T04:30:54;23.40;56.20
24326;DHT22;12448;45.532;5.290;2022-08-01T04:33:21;23.60;56.50
24326;DHT22;12448;45.532;5.290;2022-08-01T04:35:48;23.40;56.30
24326;DHT22;12448;45.532;5.290;2022-08-01T04:38:19;23.40;56.10
24326;DHT22;12448;45.532;5.290;2022-08-01T04:40:46;23.40;56.40
24326;DHT22;12448;45.532;5.290;2022-08-01T04:43:20;23.40;56.30
24326;DHT22;12448;45.532;5.290;2022-08-01T04:45:50;23.40;56.60
24326;DHT22;12448;45.532;5.290;2022-08-01T04:48:22;23.30;56.60
24326;DHT22;12448;45.532;5.290;2022-08-01T04:50:49;23.30;56.80
24326;DHT22;12448;45.532;5.290;2022-08-01T04:53:17;23.30;56.80
24326;DHT22;12448;45.532;5.290;2022-08-01T04:55:44;23.30;57.00
24326;DHT22;12448;45.532;5.290;2022-08-01T04:58:18;23.30;56.70
24326;DHT22;12448;45.532;5.290;2022-08-01T05:00:47;23.40;56.80
24326;DHT22;12448;45.532;5.290;2022-08-01T05:03:23;23.40;56.80
24326;DHT22;12448;45.532;5.290;2022-08-01T05:05:49;23.30;56.50
24326;DHT22;12448;45.532;5.290;2022-08-01T05:08:29;23.30;56.50
24326;DHT22;12448;45.532;5.290;2022-08-01T05:11:15;23.30;56.60
24326;DHT22;12448;45.532;5.290;2022-08-01T05:13:41;23.30;56.50
24326;DHT22;12448;45.532;5.290;2022-08-01T05:16:07;23.30;56.50
24326;DHT22;12448;45.532;5.290;2022-08-01T05:18:42;23.30;56.40
24326;DHT22;12448;45.532;5.290;2022-08-01T05:21:07;23.40;56.50
24326;DHT22;12448;45.532;5.290;2022-08-01T05:23:36;23.40;56.50
24326;DHT22;12448;45.532;5.290;2022-08-01T05:26:05;23.50;56.80
24326;DHT22;12448;45.532;5.290;2022-08-01T05:28:33;23.50;57.10
24326;DHT22;12448;45.532;5.290;2022-08-01T05:30:59;23.50;57.20
24326;DHT22;12448;45.532;5.290;2022-08-01T05:33:25;23.50;57.20
24326;DHT22;12448;45.532;5.290;2022-08-01T05:35:50;23.60;57.10
24326;DHT22;12448;45.532;5.290;2022-08-01T05:38:19;24.00;57.10
24326;DHT22;12448;45.532;5.290;2022-08-01T05:40:48;23.70;56.90
24326;DHT22;12448;45.532;5.290;2022-08-01T05:43:13;23.70;56.70
24326;DHT22;12448;45.532;5.290;2022-08-01T05:45:39;23.80;56.70
24326;DHT22;12448;45.532;5.290;2022-08-01T05:48:07;23.70;56.90
24326;DHT22;12448;45.532;5.290;2022-08-01T05:50:33;23.80;57.20
24326;DHT22;12448;45.532;5.290;2022-08-01T05:52:59;23.30;56.90
24326;DHT22;12448;45.532;5.290;2022-08-01T05:55:24;23.80;56.90
24326;DHT22;12448;45.532;5.290;2022-08-01T05:57:50;23.90;57.00
24326;DHT22;12448;45.532;5.290;2022-08-01T06:00:19;23.90;56.60
24326;DHT22;12448;45.532;5.290;2022-08-01T06:02:45;23.80;56.50
24326;DHT22;12448;45.532;5.290;2022-08-01T06:05:29;23.70;56.60
24326;DHT22;12448;45.532;5.290;2022-08-01T06:07:55;23.70;56.90
24326;DHT22;12448;45.532;5.290;2022-08-01T06:10:20;23.60;56.70
24326;DHT22;12448;45.532;5.290;2022-08-01T06:12:46;23.50;56.30
24326;DHT22;12448;45.532;5.290;2022-08-01T06:15:21;23.50;56.00
24326;DHT22;12448;45.532;5.290;2022-08-01T06:17:47;23.40;56.50
24326;DHT22;12448;45.532;5.290;2022-08-01T06:20:12;23.40;56.50
24326;DHT22;12448;45.532;5.290;2022-08-01T06:22:38;23.40;56.50
24326;DHT22;12448;45.532;5.290;2022-08-01T06:25:05;23.40;56.80
24326;DHT22;12448;45.532;5.290;2022-08-01T06:27:38;23.40;57.00
24326;DHT22;12448;45.532;5.290;2022-08-01T06:30:05;23.40;56.70
24326;DHT22;12448;45.532;5.290;2022-08-01T06:32:33;23.50;56.80
24326;DHT22;12448;45.532;5.290;2022-08-01T06:34:59;23.60;56.60
24326;DHT22;12448;45.532;5.290;2022-08-01T06:37:32;23.70;56.70
24326;DHT22;12448;45.532;5.290;2022-08-01T06:40:05;23.80;56.30
24326;DHT22;12448;45.532;5.290;2022-08-01T06:42:32;23.90;55.90
24326;DHT22;12448;45.532;5.290;2022-08-01T06:45:05;23.80;55.60
24326;DHT22;12448;45.532;5.290;2022-08-01T06:47:31;23.90;55.70
24326;DHT22;12448;45.532;5.290;2022-08-01T06:49:57;23.90;55.50
24326;DHT22;12448;45.532;5.290;2022-08-01T06:52:23;24.00;55.30
24326;DHT22;12448;45.532;5.290;2022-08-01T06:54:49;24.10;55.40
24326;DHT22;12448;45.532;5.290;2022-08-01T06:57:23;24.10;55.20
24326;DHT22;12448;45.532;5.290;2022-08-01T06:59:49;24.10;54.90
24326;DHT22;12448;45.532;5.290;2022-08-01T07:02:18;24.10;55.00
24326;DHT22;12448;45.532;5.290;2022-08-01T07:04:44;24.20;55.00
24326;DHT22;12448;45.532;5.290;2022-08-01T07:07:10;24.30;55.20
24326;DHT22;12448;45.532;5.290;2022-08-01T07:09:35;24.40;55.20
24326;DHT22;12448;45.532;5.290;2022-08-01T07:12:02;24.50;55.30
24326;DHT22;12448;45.532;5.290;2022-08-01T07:14:28;24.50;55.00
24326;DHT22;12448;45.532;5.290;2022-08-01T07:16:54;24.50;54.70
24326;DHT22;12448;45.532;5.290;2022-08-01T07:19:19;24.60;54.70
24326;DHT22;12448;45.532;5.290;2022-08-01T07:21:45;24.40;54.50
24326;DHT22;12448;45.532;5.290;2022-08-01T07:24:12;24.50;54.80
24326;DHT22;12448;45.532;5.290;2022-08-01T07:26:40;24.50;55.00
24326;DHT22;12448;45.532;5.290;2022-08-01T07:29:05;24.60;54.90
24326;DHT22;12448;45.532;5.290;2022-08-01T07:31:31;24.70;54.50
24326;DHT22;12448;45.532;5.290;2022-08-01T07:33:57;24.70;54.60
24326;DHT22;12448;45.532;5.290;2022-08-01T07:36:22;24.80;54.60
24326;DHT22;12448;45.532;5.290;2022-08-01T07:38:48;24.80;54.30
24326;DHT22;12448;45.532;5.290;2022-08-01T07:41:14;24.90;54.10
24326;DHT22;12448;45.532;5.290;2022-08-01T07:43:39;25.10;54.10
24326;DHT22;12448;45.532;5.290;2022-08-01T07:46:06;25.10;53.90
24326;DHT22;12448;45.532;5.290;2022-08-01T07:48:32;25.20;53.90
24326;DHT22;12448;45.532;5.290;2022-08-01T07:50:58;25.30;53.70
24326;DHT22;12448;45.532;5.290;2022-08-01T07:53:24;25.40;53.50
24326;DHT22;12448;45.532;5.290;2022-08-01T07:55:49;25.50;53.10
24326;DHT22;12448;45.532;5.290;2022-08-01T07:58:16;25.60;52.90
24326;DHT22;12448;45.532;5.290;2022-08-01T08:00:42;25.60;52.50
24326;DHT22;12448;45.532;5.290;2022-08-01T08:03:08;25.70;52.50
24326;DHT22;12448;45.532;5.290;2022-08-01T08:05:34;25.70;52.40
24326;DHT22;12448;45.532;5.290;2022-08-01T08:08:06;25.70;51.90
24326;DHT22;12448;45.532;5.290;2022-08-01T08:10:33;25.70;52.20
24326;DHT22;12448;45.532;5.290;2022-08-01T08:12:59;25.80;52.50
24326;DHT22;12448;45.532;5.290;2022-08-01T08:15:24;25.90;52.10
24326;DHT22;12448;45.532;5.290;2022-08-01T08:17:50;26.00;52.10
24326;DHT22;12448;45.532;5.290;2022-08-01T08:20:16;26.00;51.90
24326;DHT22;12448;45.532;5.290;2022-08-01T08:22:42;26.10;52.00
24326;DHT22;12448;45.532;5.290;2022-08-01T08:25:08;26.10;51.40
24326;DHT22;12448;45.532;5.290;2022-08-01T08:27:34;26.10;51.10
24326;DHT22;12448;45.532;5.290;2022-08-01T08:30:00;26.20;50.40
24326;DHT22;12448;45.532;5.290;2022-08-01T08:32:26;26.20;49.60
24326;DHT22;12448;45.532;5.290;2022-08-01T08:34:51;26.30;49.50
24326;DHT22;12448;45.532;5.290;2022-08-01T08:37:17;26.30;49.80
24326;DHT22;12448;45.532;5.290;2022-08-01T08:39:43;26.30;49.90
24326;DHT22;12448;45.532;5.290;2022-08-01T08:42:10;26.40;49.90
24326;DHT22;12448;45.532;5.290;2022-08-01T08:44:36;26.30;49.60
24326;DHT22;12448;45.532;5.290;2022-08-01T08:47:05;26.40;49.80
24326;DHT22;12448;45.532;5.290;2022-08-01T08:49:33;26.40;49.80
24326;DHT22;12448;45.532;5.290;2022-08-01T08:52:00;26.40;49.80
24326;DHT22;12448;45.532;5.290;2022-08-01T08:54:26;26.50;49.30
24326;DHT22;12448;45.532;5.290;2022-08-01T08:56:53;26.50;49.50
24326;DHT22;12448;45.532;5.290;2022-08-01T08:59:20;26.60;48.60
24326;DHT22;12448;45.532;5.290;2022-08-01T09:01:46;26.60;49.00
24326;DHT22;12448;45.532;5.290;2022-08-01T09:04:13;26.60;49.20
24326;DHT22;12448;45.532;5.290;2022-08-01T09:06:39;26.70;49.00
24326;DHT22;12448;45.532;5.290;2022-08-01T09:09:09;26.80;49.10
24326;DHT22;12448;45.532;5.290;2022-08-01T09:11:35;26.80;49.00
24326;DHT22;12448;45.532;5.290;2022-08-01T09:16:27;26.90;49.80
24326;DHT22;12448;45.532;5.290;2022-08-01T09:18:53;27.00;48.90
24326;DHT22;12448;45.532;5.290;2022-08-01T09:21:21;27.10;49.00
24326;DHT22;12448;45.532;5.290;2022-08-01T09:23:49;27.10;48.50
24326;DHT22;12448;45.532;5.290;2022-08-01T09:26:19;27.10;48.50
24326;DHT22;12448;45.532;5.290;2022-08-01T09:28:45;27.10;48.20
24326;DHT22;12448;45.532;5.290;2022-08-01T09:31:17;27.10;48.30
24326;DHT22;12448;45.532;5.290;2022-08-01T09:36:21;27.30;48.80
24326;DHT22;12448;45.532;5.290;2022-08-01T09:38:49;27.20;48.30
24326;DHT22;12448;45.532;5.290;2022-08-01T09:41:15;27.30;48.30
24326;DHT22;12448;45.532;5.290;2022-08-01T09:43:47;27.30;47.90
24326;DHT22;12448;45.532;5.290;2022-08-01T09:46:14;27.40;48.00
24326;DHT22;12448;45.532;5.290;2022-08-01T09:48:55;27.40;48.40
24326;DHT22;12448;45.532;5.290;2022-08-01T09:51:38;27.50;47.80
24326;DHT22;12448;45.532;5.290;2022-08-01T09:54:06;27.60;47.40
24326;DHT22;12448;45.532;5.290;2022-08-01T09:56:42;27.60;47.00
24326;DHT22;12448;45.532;5.290;2022-08-01T09:59:08;27.70;46.90
24326;DHT22;12448;45.532;5.290;2022-08-01T10:01:49;27.80;46.90
24326;DHT22;12448;45.532;5.290;2022-08-01T10:04:19;27.90;45.90
24326;DHT22;12448;45.532;5.290;2022-08-01T10:06:47;27.90;46.10
24326;DHT22;12448;45.532;5.290;2022-08-01T10:09:28;27.90;45.90
24326;DHT22;12448;45.532;5.290;2022-08-01T10:11:55;28.10;45.60
24326;DHT22;12448;45.532;5.290;2022-08-01T10:14:21;28.10;45.90
24326;DHT22;12448;45.532;5.290;2022-08-01T10:16:48;28.20;45.50
24326;DHT22;12448;45.532;5.290;2022-08-01T10:19:15;28.20;45.10
24326;DHT22;12448;45.532;5.290;2022-08-01T10:21:41;28.30;44.20
24326;DHT22;12448;45.532;5.290;2022-08-01T10:24:11;28.30;43.80
24326;DHT22;12448;45.532;5.290;2022-08-01T10:26:38;28.40;44.10
24326;DHT22;12448;45.532;5.290;2022-08-01T10:29:05;28.30;44.20
24326;DHT22;12448;45.532;5.290;2022-08-01T10:31:31;28.40;44.10
24326;DHT22;12448;45.532;5.290;2022-08-01T10:33:59;28.40;43.70
24326;DHT22;12448;45.532;5.290;2022-08-01T10:36:25;28.40;43.20
24326;DHT22;12448;45.532;5.290;2022-08-01T10:38:53;28.50;42.10
24326;DHT22;12448;45.532;5.290;2022-08-01T10:41:19;28.50;42.40
24326;DHT22;12448;45.532;5.290;2022-08-01T10:43:46;28.40;42.30
24326;DHT22;12448;45.532;5.290;2022-08-01T10:46:12;28.40;41.70
24326;DHT22;12448;45.532;5.290;2022-08-01T10:49:01;28.50;42.30
24326;DHT22;12448;45.532;5.290;2022-08-01T10:51:28;28.60;41.90
24326;DHT22;12448;45.532;5.290;2022-08-01T10:53:54;28.50;41.80
24326;DHT22;12448;45.532;5.290;2022-08-01T10:56:21;28.60;42.10
24326;DHT22;12448;45.532;5.290;2022-08-01T10:58:48;28.70;42.20
24326;DHT22;12448;45.532;5.290;2022-08-01T11:01:27;28.90;42.30
24326;DHT22;12448;45.532;5.290;2022-08-01T11:04:12;29.00;41.50
24326;DHT22;12448;45.532;5.290;2022-08-01T11:09:39;29.10;40.80
24326;DHT22;12448;45.532;5.290;2022-08-01T11:15:16;29.20;41.70
24326;DHT22;12448;45.532;5.290;2022-08-01T11:20:11;29.20;40.20
24326;DHT22;12448;45.532;5.290;2022-08-01T11:25:25;29.40;39.90
24326;DHT22;12448;45.532;5.290;2022-08-01T11:28:27;29.50;39.10
24326;DHT22;12448;45.532;5.290;2022-08-01T11:30:56;29.50;36.90
24326;DHT22;12448;45.532;5.290;2022-08-01T11:38:43;29.60;37.30
24326;DHT22;12448;45.532;5.290;2022-08-01T11:41:22;29.50;36.70
24326;DHT22;12448;45.532;5.290;2022-08-01T11:44:05;29.50;38.00
24326;DHT22;12448;45.532;5.290;2022-08-01T11:54:53;29.90;36.70
24326;DHT22;12448;45.532;5.290;2022-08-01T11:57:20;30.00;37.00
24326;DHT22;12448;45.532;5.290;2022-08-01T11:59:49;30.10;36.50
24326;DHT22;12448;45.532;5.290;2022-08-01T12:02:23;30.20;36.20
24326;DHT22;12448;45.532;5.290;2022-08-01T12:05:00;30.00;35.00
24326;DHT22;12448;45.532;5.290;2022-08-01T12:07:28;29.90;36.40
24326;DHT22;12448;45.532;5.290;2022-08-01T12:10:07;30.00;36.70
24326;DHT22;12448;45.532;5.290;2022-08-01T12:12:34;30.10;35.20
24326;DHT22;12448;45.532;5.290;2022-08-01T12:15:07;30.20;35.50
24326;DHT22;12448;45.532;5.290;2022-08-01T12:17:36;30.30;35.60
24326;DHT22;12448;45.532;5.290;2022-08-01T12:20:05;30.30;35.70
24326;DHT22;12448;45.532;5.290;2022-08-01T12:22:31;30.30;35.70
24326;DHT22;12448;45.532;5.290;2022-08-01T12:25:08;30.50;35.20
24326;DHT22;12448;45.532;5.290;2022-08-01T12:27:35;30.70;34.70
24326;DHT22;12448;45.532;5.290;2022-08-01T12:30:01;30.60;34.60
24326;DHT22;12448;45.532;5.290;2022-08-01T12:32:31;30.60;33.90
24326;DHT22;12448;45.532;5.290;2022-08-01T12:35:03;30.60;32.70
24326;DHT22;12448;45.532;5.290;2022-08-01T12:37:29;30.70;34.10
24326;DHT22;12448;45.532;5.290;2022-08-01T12:39:55;30.70;35.20
24326;DHT22;12448;45.532;5.290;2022-08-01T12:42:21;30.80;35.20
24326;DHT22;12448;45.532;5.290;2022-08-01T12:44:48;30.80;34.30
24326;DHT22;12448;45.532;5.290;2022-08-01T12:47:18;30.90;34.50
24326;DHT22;12448;45.532;5.290;2022-08-01T12:49:46;31.00;34.50
24326;DHT22;12448;45.532;5.290;2022-08-01T12:52:12;31.00;33.80
24326;DHT22;12448;45.532;5.290;2022-08-01T12:57:26;31.20;33.90
24326;DHT22;12448;45.532;5.290;2022-08-01T13:02:34;31.20;33.30
24326;DHT22;12448;45.532;5.290;2022-08-01T13:05:01;31.20;33.80
24326;DHT22;12448;45.532;5.290;2022-08-01T13:07:41;31.30;33.60
24326;DHT22;12448;45.532;5.290;2022-08-01T13:10:08;31.40;33.80
24326;DHT22;12448;45.532;5.290;2022-08-01T13:12:34;31.30;32.20
24326;DHT22;12448;45.532;5.290;2022-08-01T13:15:26;31.40;32.70
24326;DHT22;12448;45.532;5.290;2022-08-01T13:17:53;31.60;32.60
24326;DHT22;12448;45.532;5.290;2022-08-01T13:20:33;31.50;32.30
24326;DHT22;12448;45.532;5.290;2022-08-01T13:23:16;31.50;32.90
24326;DHT22;12448;45.532;5.290;2022-08-01T13:25:55;31.50;33.40
24326;DHT22;12448;45.532;5.290;2022-08-01T13:28:25;31.50;32.40
24326;DHT22;12448;45.532;5.290;2022-08-01T13:30:59;31.50;32.50
24326;DHT22;12448;45.532;5.290;2022-08-01T13:33:27;31.60;32.60
24326;DHT22;12448;45.532;5.290;2022-08-01T13:35:54;31.50;32.40
24326;DHT22;12448;45.532;5.290;2022-08-01T13:38:21;31.60;32.50
24326;DHT22;12448;45.532;5.290;2022-08-01T13:41:07;31.60;30.40
24326;DHT22;12448;45.532;5.290;2022-08-01T13:43:33;31.60;30.70
24326;DHT22;12448;45.532;5.290;2022-08-01T13:46:00;31.70;30.10
24326;DHT22;12448;45.532;5.290;2022-08-01T13:48:28;31.80;29.70
24326;DHT22;12448;45.532;5.290;2022-08-01T13:50:53;31.90;29.50
24326;DHT22;12448;45.532;5.290;2022-08-01T13:53:19;31.80;29.80
24326;DHT22;12448;45.532;5.290;2022-08-01T13:55:45;31.90;30.20
24326;DHT22;12448;45.532;5.290;2022-08-01T13:58:10;31.90;30.30
24326;DHT22;12448;45.532;5.290;2022-08-01T14:00:36;31.90;30.00
24326;DHT22;12448;45.532;5.290;2022-08-01T14:03:02;31.90;30.00
24326;DHT22;12448;45.532;5.290;2022-08-01T14:05:27;31.90;29.50
24326;DHT22;12448;45.532;5.290;2022-08-01T14:07:53;31.90;29.60
24326;DHT22;12448;45.532;5.290;2022-08-01T14:10:18;31.90;29.80
24326;DHT22;12448;45.532;5.290;2022-08-01T14:12:44;32.00;30.00
24326;DHT22;12448;45.532;5.290;2022-08-01T14:15:10;31.90;30.70
24326;DHT22;12448;45.532;5.290;2022-08-01T14:17:35;31.90;32.20
24326;DHT22;12448;45.532;5.290;2022-08-01T14:20:01;31.90;30.20
24326;DHT22;12448;45.532;5.290;2022-08-01T14:22:29;31.90;30.90
24326;DHT22;12448;45.532;5.290;2022-08-01T14:24:55;32.00;31.10
24326;DHT22;12448;45.532;5.290;2022-08-01T14:27:20;32.10;30.50
24326;DHT22;12448;45.532;5.290;2022-08-01T14:29:46;32.10;30.40
24326;DHT22;12448;45.532;5.290;2022-08-01T14:32:12;32.20;30.80
24326;DHT22;12448;45.532;5.290;2022-08-01T14:34:37;32.20;31.20
24326;DHT22;12448;45.532;5.290;2022-08-01T14:37:03;32.20;30.60
24326;DHT22;12448;45.532;5.290;2022-08-01T14:39:28;32.10;30.80
24326;DHT22;12448;45.532;5.290;2022-08-01T14:41:54;32.20;31.50
24326;DHT22;12448;45.532;5.290;2022-08-01T14:44:20;32.20;31.30
24326;DHT22;12448;45.532;5.290;2022-08-01T14:46:45;32.20;31.30
24326;DHT22;12448;45.532;5.290;2022-08-01T14:49:13;32.20;30.80
24326;DHT22;12448;45.532;5.290;2022-08-01T14:51:39;32.30;31.30
24326;DHT22;12448;45.532;5.290;2022-08-01T14:54:05;32.30;29.90
24326;DHT22;12448;45.532;5.290;2022-08-01T14:56:31;32.20;29.60
24326;DHT22;12448;45.532;5.290;2022-08-01T14:58:56;32.20;29.90
24326;DHT22;12448;45.532;5.290;2022-08-01T15:01:22;32.00;30.00
24326;DHT22;12448;45.532;5.290;2022-08-01T15:03:48;32.00;31.00
24326;DHT22;12448;45.532;5.290;2022-08-01T15:06:15;31.90;31.40
24326;DHT22;12448;45.532;5.290;2022-08-01T15:08:41;31.80;31.20
24326;DHT22;12448;45.532;5.290;2022-08-01T15:11:06;31.80;31.90
24326;DHT22;12448;45.532;5.290;2022-08-01T15:13:33;31.90;32.50
24326;DHT22;12448;45.532;5.290;2022-08-01T15:15:59;31.90;32.80
24326;DHT22;12448;45.532;5.290;2022-08-01T15:18:25;31.90;32.80
24326;DHT22;12448;45.532;5.290;2022-08-01T15:20:50;31.90;32.50
24326;DHT22;12448;45.532;5.290;2022-08-01T15:23:16;31.80;33.00
24326;DHT22;12448;45.532;5.290;2022-08-01T15:25:42;31.70;32.90
24326;DHT22;12448;45.532;5.290;2022-08-01T15:28:11;31.60;33.30
24326;DHT22;12448;45.532;5.290;2022-08-01T15:30:37;31.60;33.40
24326;DHT22;12448;45.532;5.290;2022-08-01T15:33:03;31.70;33.20
24326;DHT22;12448;45.532;5.290;2022-08-01T15:35:28;31.80;33.70
24326;DHT22;12448;45.532;5.290;2022-08-01T15:37:54;31.90;33.70
24326;DHT22;12448;45.532;5.290;2022-08-01T15:40:20;31.90;34.00
24326;DHT22;12448;45.532;5.290;2022-08-01T15:42:46;32.00;33.70
24326;DHT22;12448;45.532;5.290;2022-08-01T15:45:12;32.00;33.90
24326;DHT22;12448;45.532;5.290;2022-08-01T15:47:43;32.00;33.80
24326;DHT22;12448;45.532;5.290;2022-08-01T15:50:09;32.00;33.80
24326;DHT22;12448;45.532;5.290;2022-08-01T15:52:35;32.00;33.80
24326;DHT22;12448;45.532;5.290;2022-08-01T15:55:00;32.00;34.10
24326;DHT22;12448;45.532;5.290;2022-08-01T15:57:26;32.00;33.90
24326;DHT22;12448;45.532;5.290;2022-08-01T15:59:52;31.90;33.70
24326;DHT22;12448;45.532;5.290;2022-08-01T16:02:18;32.00;33.80
24326;DHT22;12448;45.532;5.290;2022-08-01T16:04:43;31.90;34.20
24326;DHT22;12448;45.532;5.290;2022-08-01T16:07:10;31.90;34.60
24326;DHT22;12448;45.532;5.290;2022-08-01T16:09:35;32.00;35.20
24326;DHT22;12448;45.532;5.290;2022-08-01T16:12:01;32.00;35.10
24326;DHT22;12448;45.532;5.290;2022-08-01T16:14:27;32.00;35.30
24326;DHT22;12448;45.532;5.290;2022-08-01T16:16:53;31.90;35.20
24326;DHT22;12448;45.532;5.290;2022-08-01T16:19:18;31.80;35.30
24326;DHT22;12448;45.532;5.290;2022-08-01T16:21:44;31.60;35.10
24326;DHT22;12448;45.532;5.290;2022-08-01T16:24:10;31.50;35.70
24326;DHT22;12448;45.532;5.290;2022-08-01T16:26:35;31.30;35.70